Pays
Station

 

Conditions  météo  pour  Launceston Airport  -  Australie    Australie

  
12 °C
    
 
 

METAR pour Launceston Airport :

YMLT 221630Z AUTO 17009KT 9999 // NCD 12/07 Q1024

 

Voici le bulletin pour Launceston Airport - Australie.
 
Le bulletin a été fait il y a 11 minutes, à 16:30 UTC .
Le vent soufflait à la vitesse de 4.6 mètres par seconde de Sud (170°).
 
La température était de 12 °C, avec un point de rosée à 7 °C.
La pression atmosphérique était de 1024 hPa.
L'humidité relative était de 71.4%.
 
La visibilité globale était de supérieure à 10 kilomètres.
 

 
 
 

Pays :   A   B   C   D   E   F   G   H   I   J   K   L   M   N   O   P   Q   R   S   T   U   V   W   Y   Z

 

Partenaires :  Info Météo avec Met'info
Météo Marine avec MeteoMarine.net
Infos Site  |  Infos Légales  |  Crédits  |  Confidentialité
Contactez-nous  |  Ajouter aux favoris
© 2013-2019 METAR - Tous droits réservés